Stanwood, Michigan
Current Conditions -  °F | °C
As of 9:15 PM on Saturday 22 Nov 2014 (Local Time) from KRQB Reporting Station
Haze Haze  
Wind Chill: 38°   Ceiling: 400
Heat Index: 41°   Visibility: 1.5mi
Dew Point: 41°   Wind: 5mph
Humidity: 100%   Direction: 230°SW
Pressure: 29.83"   Gusts: NA
Location:  43.58°N, 85.45°W
Report Text: KRQB 230215Z AUTO 23004KT 1 1/2SM BR OVC004 05/05 A2983 RMK AO2 T00520052
Loading
Personal Weather Stations






























Interactive Weather Map New forecast layout! Learn more

10-Day Weather Forecast

Advertisements
Track Severe Weather on mobile